sensor_id;sensor_type;location;lat;lon;timestamp;P1;durP1;ratioP1;P2;durP2;ratioP2
64738;SDS011;51175;51.186;0.276;2023-08-24T00:00:24;8.35;;;5.07;;
64738;SDS011;51175;51.186;0.276;2023-08-24T00:00:55;11.80;;;6.97;;
64738;SDS011;51175;51.186;0.276;2023-08-24T00:01:25;10.98;;;5.80;;
64738;SDS011;51175;51.186;0.276;2023-08-24T00:01:55;10.48;;;6.10;;
64738;SDS011;51175;51.186;0.276;2023-08-24T00:02:26;9.70;;;5.55;;
64738;SDS011;51175;51.186;0.276;2023-08-24T00:02:57;9.40;;;5.65;;
64738;SDS011;51175;51.186;0.276;2023-08-24T00:03:27;7.82;;;4.82;;
64738;SDS011;51175;51.186;0.276;2023-08-24T00:03:58;8.40;;;6.13;;
64738;SDS011;51175;51.186;0.276;2023-08-24T00:04:28;10.85;;;6.30;;
64738;SDS011;51175;51.186;0.276;2023-08-24T00:04:59;13.10;;;5.53;;
64738;SDS011;51175;51.186;0.276;2023-08-24T00:05:33;10.65;;;6.18;;
64738;SDS011;51175;51.186;0.276;2023-08-24T00:06:06;9.55;;;5.80;;
64738;SDS011;51175;51.186;0.276;2023-08-24T00:06:37;8.55;;;5.38;;
64738;SDS011;51175;51.186;0.276;2023-08-24T00:07:08;10.23;;;6.88;;
64738;SDS011;51175;51.186;0.276;2023-08-24T00:07:38;8.77;;;5.45;;
64738;SDS011;51175;51.186;0.276;2023-08-24T00:08:09;9.13;;;5.80;;
64738;SDS011;51175;51.186;0.276;2023-08-24T00:08:39;9.48;;;5.47;;
64738;SDS011;51175;51.186;0.276;2023-08-24T00:09:09;11.82;;;6.20;;
64738;SDS011;51175;51.186;0.276;2023-08-24T00:09:40;8.93;;;6.05;;
64738;SDS011;51175;51.186;0.276;2023-08-24T00:10:10;8.70;;;5.90;;
64738;SDS011;51175;51.186;0.276;2023-08-24T00:10:42;9.80;;;5.63;;
64738;SDS011;51175;51.186;0.276;2023-08-24T00:11:16;9.93;;;6.18;;
64738;SDS011;51175;51.186;0.276;2023-08-24T00:11:46;10.38;;;5.55;;
64738;SDS011;51175;51.186;0.276;2023-08-24T00:12:17;9.30;;;5.40;;
64738;SDS011;51175;51.186;0.276;2023-08-24T00:12:47;10.48;;;6.00;;
64738;SDS011;51175;51.186;0.276;2023-08-24T00:13:18;9.70;;;5.68;;
64738;SDS011;51175;51.186;0.276;2023-08-24T00:13:48;9.25;;;5.38;;
64738;SDS011;51175;51.186;0.276;2023-08-24T00:14:22;9.88;;;5.60;;
64738;SDS011;51175;51.186;0.276;2023-08-24T00:14:52;9.45;;;5.60;;
64738;SDS011;51175;51.186;0.276;2023-08-24T00:15:23;9.07;;;5.72;;
64738;SDS011;51175;51.186;0.276;2023-08-24T00:15:53;9.27;;;4.65;;
64738;SDS011;51175;51.186;0.276;2023-08-24T00:16:24;10.35;;;6.00;;
64738;SDS011;51175;51.186;0.276;2023-08-24T00:16:54;8.18;;;5.47;;
64738;SDS011;51175;51.186;0.276;2023-08-24T00:17:25;9.07;;;5.40;;
64738;SDS011;51175;51.186;0.276;2023-08-24T00:17:55;8.35;;;5.93;;
64738;SDS011;51175;51.186;0.276;2023-08-24T00:18:26;7.53;;;4.93;;
64738;SDS011;51175;51.186;0.276;2023-08-24T00:18:56;7.40;;;4.55;;
64738;SDS011;51175;51.186;0.276;2023-08-24T00:19:26;9.23;;;5.65;;
64738;SDS011;51175;51.186;0.276;2023-08-24T00:19:57;11.90;;;6.18;;
64738;SDS011;51175;51.186;0.276;2023-08-24T00:20:27;7.57;;;5.63;;
64738;SDS011;51175;51.186;0.276;2023-08-24T00:20:58;10.32;;;5.68;;
64738;SDS011;51175;51.186;0.276;2023-08-24T00:21:28;11.07;;;5.55;;
64738;SDS011;51175;51.186;0.276;2023-08-24T00:21:58;10.90;;;6.05;;
64738;SDS011;51175;51.186;0.276;2023-08-24T00:22:29;8.05;;;5.05;;
64738;SDS011;51175;51.186;0.276;2023-08-24T00:22:59;12.05;;;5.95;;
64738;SDS011;51175;51.186;0.276;2023-08-24T00:23:30;8.07;;;5.35;;
64738;SDS011;51175;51.186;0.276;2023-08-24T00:24:00;7.97;;;4.68;;
64738;SDS011;51175;51.186;0.276;2023-08-24T00:24:31;8.80;;;4.80;;
64738;SDS011;51175;51.186;0.276;2023-08-24T00:25:01;8.75;;;5.20;;
64738;SDS011;51175;51.186;0.276;2023-08-24T00:25:31;8.30;;;5.20;;
64738;SDS011;51175;51.186;0.276;2023-08-24T00:26:02;9.63;;;5.88;;
64738;SDS011;51175;51.186;0.276;2023-08-24T00:26:32;10.05;;;5.60;;
64738;SDS011;51175;51.186;0.276;2023-08-24T00:27:02;11.85;;;5.40;;
64738;SDS011;51175;51.186;0.276;2023-08-24T00:27:33;9.80;;;5.18;;
64738;SDS011;51175;51.186;0.276;2023-08-24T00:28:04;9.25;;;5.28;;
64738;SDS011;51175;51.186;0.276;2023-08-24T00:28:35;8.90;;;5.13;;
64738;SDS011;51175;51.186;0.276;2023-08-24T00:29:05;6.72;;;4.78;;
64738;SDS011;51175;51.186;0.276;2023-08-24T00:29:35;8.45;;;5.30;;
64738;SDS011;51175;51.186;0.276;2023-08-24T00:30:06;8.88;;;4.68;;
64738;SDS011;51175;51.186;0.276;2023-08-24T00:30:37;9.02;;;4.80;;
64738;SDS011;51175;51.186;0.276;2023-08-24T00:31:07;9.40;;;5.60;;
64738;SDS011;51175;51.186;0.276;2023-08-24T00:31:38;13.55;;;4.90;;
64738;SDS011;51175;51.186;0.276;2023-08-24T00:32:08;8.73;;;5.38;;
64738;SDS011;51175;51.186;0.276;2023-08-24T00:32:39;8.95;;;5.32;;
64738;SDS011;51175;51.186;0.276;2023-08-24T00:33:09;8.90;;;5.60;;
64738;SDS011;51175;51.186;0.276;2023-08-24T00:33:39;7.32;;;4.53;;
64738;SDS011;51175;51.186;0.276;2023-08-24T00:34:10;9.05;;;4.88;;
64738;SDS011;51175;51.186;0.276;2023-08-24T00:34:40;9.15;;;5.28;;
64738;SDS011;51175;51.186;0.276;2023-08-24T00:35:10;10.02;;;5.75;;
64738;SDS011;51175;51.186;0.276;2023-08-24T00:35:41;11.82;;;5.78;;
64738;SDS011;51175;51.186;0.276;2023-08-24T00:36:11;8.23;;;4.85;;
64738;SDS011;51175;51.186;0.276;2023-08-24T00:36:42;9.25;;;5.18;;
64738;SDS011;51175;51.186;0.276;2023-08-24T00:37:12;9.90;;;5.45;;
64738;SDS011;51175;51.186;0.276;2023-08-24T00:37:43;9.40;;;4.97;;
64738;SDS011;51175;51.186;0.276;2023-08-24T00:38:13;8.55;;;4.40;;
64738;SDS011;51175;51.186;0.276;2023-08-24T00:38:43;9.23;;;5.22;;
64738;SDS011;51175;51.186;0.276;2023-08-24T00:39:14;9.77;;;6.07;;
64738;SDS011;51175;51.186;0.276;2023-08-24T00:39:46;10.80;;;5.68;;
64738;SDS011;51175;51.186;0.276;2023-08-24T00:40:16;9.23;;;4.57;;
64738;SDS011;51175;51.186;0.276;2023-08-24T00:40:47;9.43;;;5.00;;
64738;SDS011;51175;51.186;0.276;2023-08-24T00:41:17;7.85;;;4.80;;
64738;SDS011;51175;51.186;0.276;2023-08-24T00:41:48;7.75;;;4.40;;
64738;SDS011;51175;51.186;0.276;2023-08-24T00:42:18;7.35;;;4.43;;
64738;SDS011;51175;51.186;0.276;2023-08-24T00:42:48;8.93;;;4.75;;
64738;SDS011;51175;51.186;0.276;2023-08-24T00:43:19;9.18;;;4.60;;
64738;SDS011;51175;51.186;0.276;2023-08-24T00:43:53;9.30;;;4.80;;
64738;SDS011;51175;51.186;0.276;2023-08-24T00:44:24;9.75;;;6.20;;
64738;SDS011;51175;51.186;0.276;2023-08-24T00:44:54;7.32;;;4.90;;
64738;SDS011;51175;51.186;0.276;2023-08-24T00:45:24;9.73;;;5.28;;
64738;SDS011;51175;51.186;0.276;2023-08-24T00:45:56;8.93;;;5.32;;
64738;SDS011;51175;51.186;0.276;2023-08-24T00:46:29;9.23;;;5.40;;
64738;SDS011;51175;51.186;0.276;2023-08-24T00:46:59;6.75;;;4.97;;
64738;SDS011;51175;51.186;0.276;2023-08-24T00:47:30;7.97;;;4.68;;
64738;SDS011;51175;51.186;0.276;2023-08-24T00:48:01;8.48;;;4.80;;
64738;SDS011;51175;51.186;0.276;2023-08-24T00:48:32;8.63;;;4.90;;
64738;SDS011;51175;51.186;0.276;2023-08-24T00:49:02;8.80;;;4.97;;
64738;SDS011;51175;51.186;0.276;2023-08-24T00:49:33;9.70;;;4.40;;
64738;SDS011;51175;51.186;0.276;2023-08-24T00:50:04;7.03;;;4.15;;
64738;SDS011;51175;51.186;0.276;2023-08-24T00:50:35;7.63;;;4.43;;
64738;SDS011;51175;51.186;0.276;2023-08-24T00:51:05;7.97;;;4.55;;
64738;SDS011;51175;51.186;0.276;2023-08-24T00:51:35;8.05;;;4.57;;
64738;SDS011;51175;51.186;0.276;2023-08-24T00:52:06;7.82;;;5.47;;
64738;SDS011;51175;51.186;0.276;2023-08-24T00:52:37;8.25;;;5.13;;
64738;SDS011;51175;51.186;0.276;2023-08-24T00:53:09;8.63;;;4.88;;
64738;SDS011;51175;51.186;0.276;2023-08-24T00:53:40;9.55;;;5.65;;
64738;SDS011;51175;51.186;0.276;2023-08-24T00:54:11;7.75;;;4.68;;
64738;SDS011;51175;51.186;0.276;2023-08-24T00:54:41;7.32;;;4.53;;
64738;SDS011;51175;51.186;0.276;2023-08-24T00:55:11;8.00;;;4.90;;
64738;SDS011;51175;51.186;0.276;2023-08-24T00:55:43;8.77;;;4.90;;
64738;SDS011;51175;51.186;0.276;2023-08-24T00:56:13;6.90;;;4.47;;
64738;SDS011;51175;51.186;0.276;2023-08-24T00:56:44;8.85;;;5.03;;
64738;SDS011;51175;51.186;0.276;2023-08-24T00:57:14;6.32;;;4.38;;
64738;SDS011;51175;51.186;0.276;2023-08-24T00:57:45;10.00;;;5.60;;
64738;SDS011;51175;51.186;0.276;2023-08-24T00:58:15;8.00;;;4.80;;
64738;SDS011;51175;51.186;0.276;2023-08-24T00:58:46;7.90;;;5.07;;
64738;SDS011;51175;51.186;0.276;2023-08-24T00:59:17;9.50;;;5.30;;
64738;SDS011;51175;51.186;0.276;2023-08-24T00:59:48;7.70;;;4.93;;
64738;SDS011;51175;51.186;0.276;2023-08-24T01:00:19;7.68;;;4.10;;
64738;SDS011;51175;51.186;0.276;2023-08-24T01:00:50;7.60;;;5.13;;
64738;SDS011;51175;51.186;0.276;2023-08-24T01:01:23;7.45;;;4.85;;
64738;SDS011;51175;51.186;0.276;2023-08-24T01:01:54;7.43;;;4.90;;
64738;SDS011;51175;51.186;0.276;2023-08-24T01:02:25;8.25;;;4.85;;
64738;SDS011;51175;51.186;0.276;2023-08-24T01:02:56;10.32;;;4.53;;
64738;SDS011;51175;51.186;0.276;2023-08-24T01:03:26;7.43;;;4.35;;
64738;SDS011;51175;51.186;0.276;2023-08-24T01:03:56;10.20;;;4.75;;
64738;SDS011;51175;51.186;0.276;2023-08-24T01:04:27;6.88;;;4.20;;
64738;SDS011;51175;51.186;0.276;2023-08-24T01:04:58;5.65;;;3.92;;
64738;SDS011;51175;51.186;0.276;2023-08-24T01:05:28;8.35;;;4.38;;
64738;SDS011;51175;51.186;0.276;2023-08-24T01:05:59;6.50;;;4.15;;
64738;SDS011;51175;51.186;0.276;2023-08-24T01:06:29;7.50;;;4.57;;
64738;SDS011;51175;51.186;0.276;2023-08-24T01:06:59;7.57;;;4.50;;
64738;SDS011;51175;51.186;0.276;2023-08-24T01:07:30;6.75;;;4.25;;
64738;SDS011;51175;51.186;0.276;2023-08-24T01:08:02;6.80;;;4.00;;
64738;SDS011;51175;51.186;0.276;2023-08-24T01:08:33;6.53;;;3.95;;
64738;SDS011;51175;51.186;0.276;2023-08-24T01:09:04;7.38;;;5.35;;
64738;SDS011;51175;51.186;0.276;2023-08-24T01:09:36;7.43;;;4.20;;
64738;SDS011;51175;51.186;0.276;2023-08-24T01:10:08;7.25;;;4.22;;
64738;SDS011;51175;51.186;0.276;2023-08-24T01:10:45;6.78;;;4.22;;
64738;SDS011;51175;51.186;0.276;2023-08-24T01:12:59;5.70;;;3.97;;
64738;SDS011;51175;51.186;0.276;2023-08-24T01:13:10;6.90;;;4.70;;
64738;SDS011;51175;51.186;0.276;2023-08-24T01:15:38;7.97;;;4.15;;
64738;SDS011;51175;51.186;0.276;2023-08-24T01:16:31;7.47;;;4.75;;
64738;SDS011;51175;51.186;0.276;2023-08-24T01:17:07;7.38;;;4.13;;
64738;SDS011;51175;51.186;0.276;2023-08-24T01:17:41;7.35;;;4.78;;
64738;SDS011;51175;51.186;0.276;2023-08-24T01:18:14;6.75;;;4.03;;
64738;SDS011;51175;51.186;0.276;2023-08-24T01:18:49;6.32;;;3.90;;
64738;SDS011;51175;51.186;0.276;2023-08-24T01:19:31;7.65;;;4.50;;
64738;SDS011;51175;51.186;0.276;2023-08-24T01:20:08;6.82;;;3.90;;
64738;SDS011;51175;51.186;0.276;2023-08-24T01:20:40;6.25;;;3.83;;
64738;SDS011;51175;51.186;0.276;2023-08-24T01:21:15;7.50;;;4.32;;
64738;SDS011;51175;51.186;0.276;2023-08-24T01:21:45;7.95;;;4.25;;
64738;SDS011;51175;51.186;0.276;2023-08-24T01:23:27;8.65;;;4.13;;
64738;SDS011;51175;51.186;0.276;2023-08-24T01:24:13;7.93;;;4.22;;
64738;SDS011;51175;51.186;0.276;2023-08-24T01:24:53;7.55;;;4.13;;
64738;SDS011;51175;51.186;0.276;2023-08-24T01:26:17;7.47;;;4.15;;
64738;SDS011;51175;51.186;0.276;2023-08-24T01:26:49;6.82;;;3.65;;
64738;SDS011;51175;51.186;0.276;2023-08-24T01:27:20;7.10;;;3.80;;
64738;SDS011;51175;51.186;0.276;2023-08-24T01:27:52;7.85;;;3.53;;
64738;SDS011;51175;51.186;0.276;2023-08-24T01:28:23;6.82;;;4.07;;
64738;SDS011;51175;51.186;0.276;2023-08-24T01:28:54;8.27;;;3.60;;
64738;SDS011;51175;51.186;0.276;2023-08-24T01:29:24;6.13;;;3.90;;
64738;SDS011;51175;51.186;0.276;2023-08-24T01:29:55;6.60;;;4.25;;
64738;SDS011;51175;51.186;0.276;2023-08-24T01:30:27;5.60;;;3.72;;
64738;SDS011;51175;51.186;0.276;2023-08-24T01:30:58;5.97;;;3.60;;
64738;SDS011;51175;51.186;0.276;2023-08-24T01:31:29;5.10;;;3.25;;
64738;SDS011;51175;51.186;0.276;2023-08-24T01:32:00;6.40;;;3.67;;
64738;SDS011;51175;51.186;0.276;2023-08-24T01:32:30;6.57;;;4.25;;
64738;SDS011;51175;51.186;0.276;2023-08-24T01:33:02;7.28;;;3.88;;
64738;SDS011;51175;51.186;0.276;2023-08-24T01:33:34;7.05;;;4.68;;
64738;SDS011;51175;51.186;0.276;2023-08-24T01:34:04;7.80;;;3.97;;
64738;SDS011;51175;51.186;0.276;2023-08-24T01:34:36;5.63;;;3.45;;
64738;SDS011;51175;51.186;0.276;2023-08-24T01:35:08;6.05;;;3.40;;
64738;SDS011;51175;51.186;0.276;2023-08-24T01:35:39;6.57;;;3.92;;
64738;SDS011;51175;51.186;0.276;2023-08-24T01:36:12;7.53;;;4.20;;
64738;SDS011;51175;51.186;0.276;2023-08-24T01:36:44;7.05;;;4.18;;
64738;SDS011;51175;51.186;0.276;2023-08-24T01:37:16;5.70;;;3.47;;
64738;SDS011;51175;51.186;0.276;2023-08-24T01:37:46;6.57;;;4.00;;
64738;SDS011;51175;51.186;0.276;2023-08-24T01:38:17;5.57;;;3.60;;
64738;SDS011;51175;51.186;0.276;2023-08-24T01:38:50;5.90;;;3.90;;
64738;SDS011;51175;51.186;0.276;2023-08-24T01:39:31;5.28;;;3.35;;
64738;SDS011;51175;51.186;0.276;2023-08-24T01:40:21;8.65;;;3.15;;
64738;SDS011;51175;51.186;0.276;2023-08-24T01:41:10;4.18;;;2.90;;
64738;SDS011;51175;51.186;0.276;2023-08-24T01:41:48;7.55;;;4.05;;
64738;SDS011;51175;51.186;0.276;2023-08-24T01:42:22;7.97;;;3.50;;
64738;SDS011;51175;51.186;0.276;2023-08-24T01:43:01;6.32;;;4.00;;
64738;SDS011;51175;51.186;0.276;2023-08-24T01:43:35;5.60;;;3.33;;
64738;SDS011;51175;51.186;0.276;2023-08-24T01:44:06;7.85;;;3.42;;
64738;SDS011;51175;51.186;0.276;2023-08-24T01:44:39;7.05;;;3.83;;
64738;SDS011;51175;51.186;0.276;2023-08-24T01:45:12;5.45;;;3.20;;
64738;SDS011;51175;51.186;0.276;2023-08-24T01:45:44;4.70;;;3.53;;
64738;SDS011;51175;51.186;0.276;2023-08-24T01:46:16;7.85;;;3.83;;
64738;SDS011;51175;51.186;0.276;2023-08-24T01:46:49;6.68;;;4.10;;
64738;SDS011;51175;51.186;0.276;2023-08-24T01:47:22;6.30;;;3.13;;
64738;SDS011;51175;51.186;0.276;2023-08-24T01:47:53;7.40;;;3.47;;
64738;SDS011;51175;51.186;0.276;2023-08-24T01:48:25;5.70;;;3.63;;
64738;SDS011;51175;51.186;0.276;2023-08-24T01:48:56;6.65;;;3.13;;
64738;SDS011;51175;51.186;0.276;2023-08-24T01:49:27;6.72;;;3.55;;
64738;SDS011;51175;51.186;0.276;2023-08-24T01:49:59;7.03;;;4.55;;
64738;SDS011;51175;51.186;0.276;2023-08-24T01:50:31;5.50;;;3.45;;
64738;SDS011;51175;51.186;0.276;2023-08-24T01:51:03;6.30;;;3.47;;
64738;SDS011;51175;51.186;0.276;2023-08-24T01:51:34;5.65;;;3.17;;
64738;SDS011;51175;51.186;0.276;2023-08-24T01:52:05;4.88;;;2.90;;
64738;SDS011;51175;51.186;0.276;2023-08-24T01:52:35;8.35;;;3.78;;
64738;SDS011;51175;51.186;0.276;2023-08-24T01:53:06;4.28;;;2.97;;
64738;SDS011;51175;51.186;0.276;2023-08-24T01:53:36;4.70;;;3.03;;
64738;SDS011;51175;51.186;0.276;2023-08-24T01:54:09;6.32;;;3.88;;
64738;SDS011;51175;51.186;0.276;2023-08-24T01:54:39;6.75;;;2.90;;
64738;SDS011;51175;51.186;0.276;2023-08-24T01:55:10;4.70;;;2.97;;
64738;SDS011;51175;51.186;0.276;2023-08-24T01:55:41;5.00;;;3.25;;
64738;SDS011;51175;51.186;0.276;2023-08-24T01:56:14;5.90;;;2.97;;
64738;SDS011;51175;51.186;0.276;2023-08-24T01:56:46;4.53;;;2.72;;
64738;SDS011;51175;51.186;0.276;2023-08-24T01:57:16;5.85;;;3.50;;
64738;SDS011;51175;51.186;0.276;2023-08-24T01:57:47;5.82;;;3.70;;
64738;SDS011;51175;51.186;0.276;2023-08-24T01:58:18;4.88;;;2.85;;
64738;SDS011;51175;51.186;0.276;2023-08-24T01:58:49;5.20;;;3.03;;
64738;SDS011;51175;51.186;0.276;2023-08-24T01:59:19;6.60;;;3.65;;
64738;SDS011;51175;51.186;0.276;2023-08-24T01:59:49;5.85;;;3.05;;
64738;SDS011;51175;51.186;0.276;2023-08-24T02:00:20;6.03;;;3.63;;
64738;SDS011;51175;51.186;0.276;2023-08-24T02:00:50;5.65;;;3.08;;
64738;SDS011;51175;51.186;0.276;2023-08-24T02:01:21;4.32;;;3.22;;
64738;SDS011;51175;51.186;0.276;2023-08-24T02:01:52;5.40;;;3.15;;
64738;SDS011;51175;51.186;0.276;2023-08-24T02:02:23;5.43;;;3.15;;
64738;SDS011;51175;51.186;0.276;2023-08-24T02:02:54;5.90;;;2.92;;
64738;SDS011;51175;51.186;0.276;2023-08-24T02:03:24;6.15;;;2.78;;
64738;SDS011;51175;51.186;0.276;2023-08-24T02:03:54;6.10;;;3.50;;
64738;SDS011;51175;51.186;0.276;2023-08-24T02:04:25;4.93;;;2.85;;
64738;SDS011;51175;51.186;0.276;2023-08-24T02:04:56;5.60;;;2.75;;
64738;SDS011;51175;51.186;0.276;2023-08-24T02:05:26;7.07;;;3.30;;
64738;SDS011;51175;51.186;0.276;2023-08-24T02:05:58;6.65;;;3.17;;
64738;SDS011;51175;51.186;0.276;2023-08-24T02:06:29;5.97;;;2.55;;
64738;SDS011;51175;51.186;0.276;2023-08-24T02:06:59;6.03;;;3.55;;
64738;SDS011;51175;51.186;0.276;2023-08-24T02:07:29;7.50;;;3.08;;
64738;SDS011;51175;51.186;0.276;2023-08-24T02:08:00;5.82;;;3.25;;
64738;SDS011;51175;51.186;0.276;2023-08-24T02:08:30;5.72;;;3.22;;
64738;SDS011;51175;51.186;0.276;2023-08-24T02:09:00;5.32;;;3.60;;
64738;SDS011;51175;51.186;0.276;2023-08-24T02:09:31;5.15;;;2.97;;
64738;SDS011;51175;51.186;0.276;2023-08-24T02:10:01;6.13;;;3.40;;
64738;SDS011;51175;51.186;0.276;2023-08-24T02:10:32;5.13;;;2.92;;
64738;SDS011;51175;51.186;0.276;2023-08-24T02:11:02;5.93;;;3.10;;
64738;SDS011;51175;51.186;0.276;2023-08-24T02:11:33;5.70;;;3.00;;
64738;SDS011;51175;51.186;0.276;2023-08-24T02:12:03;4.43;;;3.05;;
64738;SDS011;51175;51.186;0.276;2023-08-24T02:12:34;6.30;;;3.30;;
64738;SDS011;51175;51.186;0.276;2023-08-24T02:13:04;5.80;;;3.10;;
64738;SDS011;51175;51.186;0.276;2023-08-24T02:13:34;5.07;;;3.40;;
64738;SDS011;51175;51.186;0.276;2023-08-24T02:14:05;4.82;;;2.58;;
64738;SDS011;51175;51.186;0.276;2023-08-24T02:14:35;6.32;;;3.25;;
64738;SDS011;51175;51.186;0.276;2023-08-24T02:15:06;5.32;;;3.22;;
64738;SDS011;51175;51.186;0.276;2023-08-24T02:15:37;5.57;;;3.03;;
64738;SDS011;51175;51.186;0.276;2023-08-24T02:16:09;4.05;;;2.58;;
64738;SDS011;51175;51.186;0.276;2023-08-24T02:16:39;4.43;;;2.80;;
64738;SDS011;51175;51.186;0.276;2023-08-24T02:17:10;6.40;;;2.92;;
64738;SDS011;51175;51.186;0.276;2023-08-24T02:17:40;6.68;;;3.88;;
64738;SDS011;51175;51.186;0.276;2023-08-24T02:18:10;4.57;;;2.85;;
64738;SDS011;51175;51.186;0.276;2023-08-24T02:18:41;5.40;;;3.50;;
64738;SDS011;51175;51.186;0.276;2023-08-24T02:19:12;6.00;;;2.80;;
64738;SDS011;51175;51.186;0.276;2023-08-24T02:19:42;4.28;;;2.53;;
64738;SDS011;51175;51.186;0.276;2023-08-24T02:20:12;4.38;;;2.60;;
64738;SDS011;51175;51.186;0.276;2023-08-24T02:20:43;5.82;;;2.78;;
64738;SDS011;51175;51.186;0.276;2023-08-24T02:21:13;4.03;;;2.70;;
64738;SDS011;51175;51.186;0.276;2023-08-24T02:21:46;6.68;;;3.22;;
64738;SDS011;51175;51.186;0.276;2023-08-24T02:22:16;4.55;;;2.55;;
64738;SDS011;51175;51.186;0.276;2023-08-24T02:22:46;6.88;;;2.90;;
64738;SDS011;51175;51.186;0.276;2023-08-24T02:23:16;4.80;;;2.45;;
64738;SDS011;51175;51.186;0.276;2023-08-24T02:23:47;4.95;;;3.13;;
64738;SDS011;51175;51.186;0.276;2023-08-24T02:24:17;4.43;;;2.70;;
64738;SDS011;51175;51.186;0.276;2023-08-24T02:24:47;4.57;;;2.53;;
64738;SDS011;51175;51.186;0.276;2023-08-24T02:25:18;5.78;;;3.28;;
64738;SDS011;51175;51.186;0.276;2023-08-24T02:25:48;5.43;;;2.88;;
64738;SDS011;51175;51.186;0.276;2023-08-24T02:26:18;3.78;;;2.55;;
64738;SDS011;51175;51.186;0.276;2023-08-24T02:26:50;4.18;;;2.50;;
64738;SDS011;51175;51.186;0.276;2023-08-24T02:27:20;5.53;;;2.83;;
64738;SDS011;51175;51.186;0.276;2023-08-24T02:27:51;5.40;;;2.75;;
64738;SDS011;51175;51.186;0.276;2023-08-24T02:28:21;5.47;;;2.67;;
64738;SDS011;51175;51.186;0.276;2023-08-24T02:28:51;5.82;;;2.50;;
64738;SDS011;51175;51.186;0.276;2023-08-24T02:29:22;3.88;;;2.88;;
64738;SDS011;51175;51.186;0.276;2023-08-24T02:29:52;5.10;;;3.03;;
64738;SDS011;51175;51.186;0.276;2023-08-24T02:30:22;5.53;;;2.75;;
64738;SDS011;51175;51.186;0.276;2023-08-24T02:30:53;3.47;;;2.47;;
64738;SDS011;51175;51.186;0.276;2023-08-24T02:31:24;5.65;;;2.38;;
64738;SDS011;51175;51.186;0.276;2023-08-24T02:31:54;5.15;;;2.50;;
64738;SDS011;51175;51.186;0.276;2023-08-24T02:32:25;6.72;;;3.30;;
64738;SDS011;51175;51.186;0.276;2023-08-24T02:32:55;3.28;;;2.35;;
64738;SDS011;51175;51.186;0.276;2023-08-24T02:33:26;5.13;;;2.63;;
64738;SDS011;51175;51.186;0.276;2023-08-24T02:33:56;4.00;;;2.50;;
64738;SDS011;51175;51.186;0.276;2023-08-24T02:34:27;5.40;;;2.65;;
64738;SDS011;51175;51.186;0.276;2023-08-24T02:34:57;4.68;;;2.35;;
64738;SDS011;51175;51.186;0.276;2023-08-24T02:35:27;5.63;;;2.53;;
64738;SDS011;51175;51.186;0.276;2023-08-24T02:35:58;4.70;;;3.03;;
64738;SDS011;51175;51.186;0.276;2023-08-24T02:36:28;5.20;;;2.20;;
64738;SDS011;51175;51.186;0.276;2023-08-24T02:37:02;4.38;;;2.45;;
64738;SDS011;51175;51.186;0.276;2023-08-24T02:37:32;6.32;;;3.17;;
64738;SDS011;51175;51.186;0.276;2023-08-24T02:38:02;4.93;;;2.70;;
64738;SDS011;51175;51.186;0.276;2023-08-24T02:38:33;4.47;;;2.63;;
64738;SDS011;51175;51.186;0.276;2023-08-24T02:39:03;4.93;;;2.50;;
64738;SDS011;51175;51.186;0.276;2023-08-24T02:39:35;5.90;;;2.53;;
64738;SDS011;51175;51.186;0.276;2023-08-24T02:40:05;4.00;;;2.28;;
64738;SDS011;51175;51.186;0.276;2023-08-24T02:40:36;7.47;;;3.42;;
64738;SDS011;51175;51.186;0.276;2023-08-24T02:41:07;4.65;;;2.80;;
64738;SDS011;51175;51.186;0.276;2023-08-24T02:41:39;4.78;;;2.67;;
64738;SDS011;51175;51.186;0.276;2023-08-24T02:42:09;4.65;;;2.45;;
64738;SDS011;51175;51.186;0.276;2023-08-24T02:42:39;4.25;;;2.38;;
64738;SDS011;51175;51.186;0.276;2023-08-24T02:43:10;4.30;;;2.50;;
64738;SDS011;51175;51.186;0.276;2023-08-24T02:43:40;3.50;;;2.50;;
64738;SDS011;51175;51.186;0.276;2023-08-24T02:44:10;3.65;;;2.50;;
64738;SDS011;51175;51.186;0.276;2023-08-24T02:44:41;3.78;;;2.15;;
64738;SDS011;51175;51.186;0.276;2023-08-24T02:45:11;6.20;;;2.90;;
64738;SDS011;51175;51.186;0.276;2023-08-24T02:45:41;4.63;;;2.60;;
64738;SDS011;51175;51.186;0.276;2023-08-24T02:46:12;4.20;;;2.58;;
64738;SDS011;51175;51.186;0.276;2023-08-24T02:46:47;4.00;;;2.90;;
64738;SDS011;51175;51.186;0.276;2023-08-24T02:47:18;5.72;;;3.42;;
64738;SDS011;51175;51.186;0.276;2023-08-24T02:47:48;5.10;;;3.22;;
64738;SDS011;51175;51.186;0.276;2023-08-24T02:48:19;5.60;;;3.10;;
64738;SDS011;51175;51.186;0.276;2023-08-24T02:48:49;4.10;;;2.67;;
64738;SDS011;51175;51.186;0.276;2023-08-24T02:49:19;4.57;;;2.40;;
64738;SDS011;51175;51.186;0.276;2023-08-24T02:49:50;4.90;;;2.95;;
64738;SDS011;51175;51.186;0.276;2023-08-24T02:50:21;3.42;;;2.08;;
64738;SDS011;51175;51.186;0.276;2023-08-24T02:50:52;5.18;;;2.53;;
64738;SDS011;51175;51.186;0.276;2023-08-24T02:51:23;3.42;;;2.28;;
64738;SDS011;51175;51.186;0.276;2023-08-24T02:51:53;7.70;;;2.83;;
64738;SDS011;51175;51.186;0.276;2023-08-24T02:52:23;3.10;;;2.47;;
64738;SDS011;51175;51.186;0.276;2023-08-24T02:52:54;5.80;;;2.40;;
64738;SDS011;51175;51.186;0.276;2023-08-24T02:53:24;4.28;;;2.40;;
64738;SDS011;51175;51.186;0.276;2023-08-24T02:53:55;3.33;;;2.33;;
64738;SDS011;51175;51.186;0.276;2023-08-24T02:54:25;4.05;;;2.35;;
64738;SDS011;51175;51.186;0.276;2023-08-24T02:54:55;5.00;;;2.72;;
64738;SDS011;51175;51.186;0.276;2023-08-24T02:55:26;5.57;;;2.20;;
64738;SDS011;51175;51.186;0.276;2023-08-24T02:55:56;5.30;;;2.38;;
64738;SDS011;51175;51.186;0.276;2023-08-24T02:56:27;4.45;;;2.70;;
64738;SDS011;51175;51.186;0.276;2023-08-24T02:56:57;3.50;;;2.17;;
64738;SDS011;51175;51.186;0.276;2023-08-24T02:57:27;5.82;;;2.60;;
64738;SDS011;51175;51.186;0.276;2023-08-24T02:57:58;4.50;;;2.45;;
64738;SDS011;51175;51.186;0.276;2023-08-24T02:58:28;3.65;;;1.98;;
64738;SDS011;51175;51.186;0.276;2023-08-24T02:58:59;5.40;;;2.10;;
64738;SDS011;51175;51.186;0.276;2023-08-24T02:59:29;5.00;;;2.22;;
64738;SDS011;51175;51.186;0.276;2023-08-24T03:00:00;3.53;;;2.20;;
64738;SDS011;51175;51.186;0.276;2023-08-24T03:00:30;3.90;;;2.50;;
64738;SDS011;51175;51.186;0.276;2023-08-24T03:01:03;4.40;;;2.42;;
64738;SDS011;51175;51.186;0.276;2023-08-24T03:01:37;3.85;;;2.03;;
64738;SDS011;51175;51.186;0.276;2023-08-24T03:02:08;4.82;;;2.67;;
64738;SDS011;51175;51.186;0.276;2023-08-24T03:02:39;5.65;;;2.20;;
64738;SDS011;51175;51.186;0.276;2023-08-24T03:03:09;4.05;;;2.35;;
64738;SDS011;51175;51.186;0.276;2023-08-24T03:03:39;4.32;;;2.00;;
64738;SDS011;51175;51.186;0.276;2023-08-24T03:04:10;3.10;;;2.03;;
64738;SDS011;51175;51.186;0.276;2023-08-24T03:04:40;4.40;;;2.40;;
64738;SDS011;51175;51.186;0.276;2023-08-24T03:05:10;4.70;;;2.17;;
64738;SDS011;51175;51.186;0.276;2023-08-24T03:05:41;4.38;;;2.67;;
64738;SDS011;51175;51.186;0.276;2023-08-24T03:06:24;4.55;;;2.88;;
64738;SDS011;51175;51.186;0.276;2023-08-24T03:06:54;5.45;;;2.35;;
64738;SDS011;51175;51.186;0.276;2023-08-24T03:07:24;6.70;;;2.92;;
64738;SDS011;51175;51.186;0.276;2023-08-24T03:07:55;3.78;;;2.53;;
64738;SDS011;51175;51.186;0.276;2023-08-24T03:08:25;4.82;;;2.22;;
64738;SDS011;51175;51.186;0.276;2023-08-24T03:08:56;3.42;;;2.38;;
64738;SDS011;51175;51.186;0.276;2023-08-24T03:09:26;5.00;;;2.83;;
64738;SDS011;51175;51.186;0.276;2023-08-24T03:09:57;5.82;;;2.67;;
64738;SDS011;51175;51.186;0.276;2023-08-24T03:10:27;6.18;;;2.40;;
64738;SDS011;51175;51.186;0.276;2023-08-24T03:10:58;3.78;;;2.45;;
64738;SDS011;51175;51.186;0.276;2023-08-24T03:11:29;3.17;;;2.85;;
64738;SDS011;51175;51.186;0.276;2023-08-24T03:12:00;4.72;;;2.33;;
64738;SDS011;51175;51.186;0.276;2023-08-24T03:12:30;3.95;;;2.58;;
64738;SDS011;51175;51.186;0.276;2023-08-24T03:13:00;4.78;;;2.55;;
64738;SDS011;51175;51.186;0.276;2023-08-24T03:13:31;5.00;;;2.40;;
64738;SDS011;51175;51.186;0.276;2023-08-24T03:14:02;3.50;;;3.17;;